createdAt,value
2019-03-17T00:01:37.481Z,1.60
2019-03-17T00:04:09.285Z,1.37
2019-03-17T00:06:39.993Z,1.70
2019-03-17T00:09:08.699Z,1.17
2019-03-17T00:11:37.417Z,1.33
2019-03-17T00:14:08.853Z,1.63
2019-03-17T00:16:37.610Z,1.37
2019-03-17T00:19:06.376Z,1.37
2019-03-17T00:21:35.036Z,1.40
2019-03-17T00:24:03.688Z,1.60
2019-03-17T00:26:32.336Z,1.50
2019-03-17T00:29:01.164Z,2.07
2019-03-17T00:31:29.890Z,1.40
2019-03-17T00:33:58.656Z,1.50
2019-03-17T00:36:29.402Z,1.53
2019-03-17T00:38:59.575Z,1.60
2019-03-17T00:41:31.907Z,1.50
2019-03-17T00:44:01.221Z,1.47
2019-03-17T00:46:29.740Z,1.60
2019-03-17T00:48:58.418Z,1.73
2019-03-17T00:51:30.105Z,1.33
2019-03-17T00:53:59.762Z,1.40
2019-03-17T00:56:30.768Z,1.20
2019-03-17T00:59:02.446Z,1.47
2019-03-17T01:01:32.783Z,1.37
2019-03-17T01:04:01.714Z,1.63
2019-03-17T01:06:30.423Z,1.47
2019-03-17T01:09:01.812Z,1.50
2019-03-17T01:11:30.510Z,1.40
2019-03-17T01:13:59.198Z,1.70
2019-03-17T01:16:27.862Z,1.40
2019-03-17T01:18:56.510Z,1.30
2019-03-17T01:21:25.213Z,1.80
2019-03-17T01:23:53.902Z,1.30
2019-03-17T01:26:22.542Z,1.23
2019-03-17T01:28:55.651Z,1.30
2019-03-17T01:31:24.329Z,1.57
2019-03-17T01:33:53.265Z,1.10
2019-03-17T01:36:21.950Z,1.30
2019-03-17T01:38:51.879Z,1.23
2019-03-17T01:41:20.608Z,1.60
2019-03-17T01:43:49.290Z,1.33
2019-03-17T01:46:23.650Z,1.50
2019-03-17T01:48:52.288Z,1.40
2019-03-17T01:51:20.967Z,1.50
2019-03-17T01:53:49.539Z,1.23
2019-03-17T01:56:18.175Z,1.20
2019-03-17T01:58:46.845Z,1.50
2019-03-17T02:01:16.000Z,1.50
2019-03-17T02:03:44.698Z,1.40
2019-03-17T02:06:13.367Z,1.53
2019-03-17T02:08:43.939Z,1.53
2019-03-17T02:11:12.682Z,1.00
2019-03-17T02:13:41.357Z,1.40
2019-03-17T02:16:09.913Z,1.50
2019-03-17T02:18:38.683Z,1.57
2019-03-17T02:21:07.419Z,1.10
2019-03-17T02:23:35.976Z,1.27
2019-03-17T02:26:04.683Z,1.70
2019-03-17T02:28:33.423Z,1.63
2019-03-17T02:31:02.134Z,1.50
2019-03-17T02:33:31.344Z,1.30
2019-03-17T02:36:00.086Z,1.30
2019-03-17T02:38:28.750Z,1.30
2019-03-17T02:40:57.563Z,1.40
2019-03-17T02:43:26.235Z,1.10
2019-03-17T02:45:55.295Z,1.40
2019-03-17T02:48:25.811Z,1.60
2019-03-17T02:50:54.271Z,1.67
2019-03-17T02:53:22.908Z,1.27
2019-03-17T02:55:51.540Z,1.30
2019-03-17T02:58:20.225Z,1.90
2019-03-17T03:00:48.861Z,1.47
2019-03-17T03:03:17.530Z,1.03
2019-03-17T03:05:54.694Z,1.30
2019-03-17T03:08:16.769Z,1.27
2019-03-17T03:10:48.253Z,1.17
2019-03-17T03:13:16.958Z,1.00
2019-03-17T03:15:46.826Z,1.30
2019-03-17T03:18:15.450Z,1.20
2019-03-17T03:20:44.063Z,1.67
2019-03-17T03:23:12.691Z,1.30
2019-03-17T03:25:41.385Z,1.20
2019-03-17T03:28:10.083Z,1.40
2019-03-17T03:30:38.998Z,1.87
2019-03-17T03:33:07.709Z,1.33
2019-03-17T03:35:36.539Z,1.20
2019-03-17T03:38:05.178Z,1.23
2019-03-17T03:40:34.039Z,1.37
2019-03-17T03:43:02.874Z,1.23
2019-03-17T03:45:31.777Z,1.20
2019-03-17T03:48:00.660Z,1.27
2019-03-17T03:50:29.993Z,1.23
2019-03-17T03:53:00.635Z,1.43
2019-03-17T03:55:29.362Z,1.10
2019-03-17T03:57:58.067Z,1.47
2019-03-17T04:00:26.843Z,1.13
2019-03-17T04:02:55.711Z,1.20
2019-03-17T04:05:24.452Z,1.10
2019-03-17T04:07:53.894Z,1.60
2019-03-17T04:10:22.627Z,1.60
2019-03-17T04:12:51.479Z,1.60
2019-03-17T04:15:20.195Z,1.63
2019-03-17T04:17:48.832Z,1.43
2019-03-17T04:20:17.504Z,1.33
2019-03-17T04:22:46.212Z,1.50
2019-03-17T04:25:16.807Z,1.50
2019-03-17T04:27:45.480Z,1.80
2019-03-17T04:30:14.181Z,1.30
2019-03-17T04:32:42.885Z,1.40
2019-03-17T04:35:11.623Z,1.27
2019-03-17T04:37:40.182Z,1.70
2019-03-17T04:40:09.812Z,1.63
2019-03-17T04:42:38.548Z,1.67
2019-03-17T04:45:08.291Z,1.17
2019-03-17T04:47:36.893Z,1.40
2019-03-17T04:50:07.045Z,1.80
2019-03-17T04:52:35.678Z,1.80
2019-03-17T04:55:05.591Z,1.60
2019-03-17T04:57:34.330Z,1.30
2019-03-17T05:00:06.609Z,1.40
2019-03-17T05:02:35.316Z,1.43
2019-03-17T05:05:05.162Z,1.63
2019-03-17T05:07:33.795Z,1.70
2019-03-17T05:10:02.519Z,1.93
2019-03-17T05:12:32.832Z,1.60
2019-03-17T05:15:01.401Z,1.57
2019-03-17T05:17:30.106Z,1.50
2019-03-17T05:19:59.728Z,1.73
2019-03-17T05:22:28.370Z,2.00
2019-03-17T05:24:57.140Z,1.60
2019-03-17T05:27:27.656Z,1.80
2019-03-17T05:29:57.994Z,1.50
2019-03-17T05:32:26.705Z,1.77
2019-03-17T05:34:55.430Z,2.00
2019-03-17T05:37:24.138Z,1.70
2019-03-17T05:39:52.772Z,2.20
2019-03-17T05:42:21.522Z,1.83
2019-03-17T05:44:50.180Z,1.63
2019-03-17T05:47:18.897Z,2.47
2019-03-17T05:49:47.504Z,1.93
2019-03-17T05:52:16.135Z,2.00
2019-03-17T05:54:44.868Z,2.20
2019-03-17T05:57:13.482Z,2.13
2019-03-17T05:59:42.124Z,2.20
2019-03-17T06:02:10.686Z,2.00
2019-03-17T06:04:40.660Z,1.90
2019-03-17T06:07:18.209Z,2.53
2019-03-17T06:09:39.542Z,1.90
2019-03-17T06:12:09.162Z,2.03
2019-03-17T06:14:37.807Z,1.80
2019-03-17T06:17:06.527Z,2.03
2019-03-17T06:19:35.127Z,2.00
2019-03-17T06:22:03.828Z,2.10
2019-03-17T06:24:32.457Z,2.53
2019-03-17T06:27:01.139Z,2.03
2019-03-17T06:29:29.722Z,2.03
2019-03-17T06:31:58.425Z,2.20
2019-03-17T06:34:27.149Z,1.87
2019-03-17T06:36:55.863Z,2.13
2019-03-17T06:39:24.417Z,2.00
2019-03-17T06:41:53.162Z,2.07
2019-03-17T06:44:23.380Z,1.70
2019-03-17T06:46:53.393Z,2.20
2019-03-17T06:49:22.055Z,2.27
2019-03-17T06:51:50.755Z,2.27
2019-03-17T06:54:19.495Z,2.07
2019-03-17T06:56:48.080Z,2.00
2019-03-17T06:59:17.768Z,2.20
2019-03-17T07:01:46.558Z,2.57
2019-03-17T07:04:15.315Z,2.10
2019-03-17T07:06:44.183Z,2.13
2019-03-17T07:09:12.795Z,3.17
2019-03-17T07:11:41.645Z,2.10
2019-03-17T07:14:10.677Z,2.47
2019-03-17T07:16:39.395Z,2.40
2019-03-17T07:19:08.200Z,2.17
2019-03-17T07:21:36.885Z,2.10
2019-03-17T07:24:05.594Z,2.67
2019-03-17T07:26:34.347Z,3.10
2019-03-17T07:29:03.043Z,2.30
2019-03-17T07:31:31.621Z,2.70
2019-03-17T07:34:03.647Z,2.60
2019-03-17T07:36:32.345Z,2.40
2019-03-17T07:39:11.027Z,2.07
2019-03-17T07:41:31.229Z,2.20
2019-03-17T07:43:59.858Z,2.50
2019-03-17T07:46:28.697Z,2.27
2019-03-17T07:48:57.362Z,2.00
2019-03-17T07:51:25.961Z,2.30
2019-03-17T07:53:54.663Z,2.40
2019-03-17T07:56:23.419Z,2.30
2019-03-17T07:58:53.823Z,2.30
2019-03-17T08:01:22.392Z,2.33
2019-03-17T08:03:51.181Z,2.30
2019-03-17T08:06:19.905Z,2.40
2019-03-17T08:08:48.626Z,2.53
2019-03-17T08:11:17.476Z,6.60
2019-03-17T08:13:46.155Z,2.63
2019-03-17T08:16:14.869Z,5.40
2019-03-17T08:18:46.533Z,3.13
2019-03-17T08:21:15.249Z,3.20
2019-03-17T08:23:45.581Z,2.77
2019-03-17T08:26:17.075Z,3.03
2019-03-17T08:28:45.701Z,2.73
2019-03-17T08:31:14.498Z,2.57
2019-03-17T08:33:44.558Z,2.60
2019-03-17T08:36:13.285Z,2.90
2019-03-17T08:38:47.074Z,2.50
2019-03-17T08:41:17.656Z,2.93
2019-03-17T08:43:54.246Z,2.63
2019-03-17T08:46:17.730Z,2.53
2019-03-17T08:48:48.631Z,2.73
2019-03-17T08:51:17.285Z,3.23
2019-03-17T08:53:47.926Z,2.50
2019-03-17T08:56:16.707Z,3.00
2019-03-17T08:58:45.426Z,2.93
2019-03-17T09:01:15.562Z,2.57
2019-03-17T09:03:44.306Z,3.13
2019-03-17T09:06:14.938Z,2.80
2019-03-17T09:08:43.304Z,3.50
2019-03-17T09:11:18.419Z,3.27
2019-03-17T09:13:47.277Z,3.87
2019-03-17T09:16:16.293Z,3.40
2019-03-17T09:18:46.505Z,3.13
2019-03-17T09:21:21.324Z,3.60
2019-03-17T09:23:50.399Z,3.47
2019-03-17T09:26:31.033Z,3.50
2019-03-17T09:29:00.304Z,3.57
2019-03-17T09:31:28.935Z,4.60
2019-03-17T09:33:57.538Z,3.97
2019-03-17T09:36:29.142Z,4.70
2019-03-17T09:38:57.918Z,3.20
2019-03-17T09:41:26.671Z,3.83
2019-03-17T09:43:55.246Z,3.73
2019-03-17T09:46:29.407Z,3.20
2019-03-17T09:48:59.657Z,3.33
2019-03-17T09:51:31.248Z,3.13
2019-03-17T09:54:02.527Z,3.90
2019-03-17T09:56:31.262Z,3.40
2019-03-17T09:59:00.309Z,3.60
2019-03-17T10:01:29.210Z,3.93
2019-03-17T10:03:58.419Z,4.23
2019-03-17T10:06:27.086Z,4.87
2019-03-17T10:09:00.622Z,3.50
2019-03-17T10:11:32.342Z,4.33
2019-03-17T10:14:04.037Z,4.13
2019-03-17T10:16:36.647Z,4.17
2019-03-17T10:19:06.386Z,4.70
2019-03-17T10:21:35.046Z,4.03
2019-03-17T10:24:03.760Z,4.07
2019-03-17T10:26:41.930Z,3.73
2019-03-17T10:29:10.630Z,1.70
2019-03-17T10:31:41.234Z,0.60
2019-03-17T10:34:09.920Z,0.70
2019-03-17T10:36:41.648Z,0.70
2019-03-17T10:39:12.667Z,0.60
2019-03-17T10:41:40.618Z,0.60
2019-03-17T10:44:09.340Z,0.50
2019-03-17T10:46:38.044Z,0.47
2019-03-17T10:49:06.990Z,0.40
2019-03-17T10:51:38.450Z,0.50
2019-03-17T10:54:09.857Z,0.67
2019-03-17T10:56:38.747Z,0.60
2019-03-17T10:59:10.299Z,0.60
2019-03-17T11:01:39.041Z,0.63
2019-03-17T11:04:07.717Z,1.00
2019-03-17T11:06:37.538Z,0.70
2019-03-17T11:09:07.778Z,0.70
2019-03-17T11:11:39.326Z,0.60
2019-03-17T11:14:15.237Z,1.40
2019-03-17T11:16:43.914Z,0.70
2019-03-17T11:19:13.481Z,0.90
2019-03-17T11:21:42.221Z,0.97
2019-03-17T11:24:12.443Z,1.97
2019-03-17T11:26:43.783Z,2.57
2019-03-17T11:29:13.570Z,3.27
2019-03-17T11:31:42.242Z,1.50
2019-03-17T11:34:14.485Z,1.50
2019-03-17T11:36:43.224Z,1.87
2019-03-17T11:39:15.909Z,1.57
2019-03-17T11:41:45.755Z,2.73
2019-03-17T11:44:14.469Z,3.83
2019-03-17T11:46:43.180Z,3.17
2019-03-17T11:49:12.287Z,0.87
2019-03-17T11:51:41.201Z,1.20
2019-03-17T11:54:09.911Z,1.20
2019-03-17T11:56:39.681Z,1.97
2019-03-17T11:59:08.549Z,1.13
2019-03-17T12:01:41.580Z,1.10
2019-03-17T12:04:10.321Z,1.23
2019-03-17T12:06:39.029Z,1.37
2019-03-17T12:09:07.941Z,1.00
2019-03-17T12:11:36.643Z,1.70
2019-03-17T12:14:05.658Z,1.57
2019-03-17T12:16:34.391Z,1.60
2019-03-17T12:19:03.299Z,1.50
2019-03-17T12:21:34.679Z,1.23
2019-03-17T12:24:13.395Z,1.20
2019-03-17T12:26:44.889Z,1.47
2019-03-17T12:29:14.107Z,1.47
2019-03-17T12:31:43.213Z,1.40
2019-03-17T12:34:11.789Z,1.60
2019-03-17T12:36:40.390Z,1.57
2019-03-17T12:39:10.751Z,1.33
2019-03-17T12:41:39.485Z,1.23
2019-03-17T12:44:08.305Z,4.87
2019-03-17T12:46:36.942Z,2.00
2019-03-17T12:49:05.639Z,4.60
2019-03-17T12:51:34.407Z,2.50
2019-03-17T12:54:04.584Z,4.17
2019-03-17T12:56:33.283Z,1.47
2019-03-17T12:59:02.026Z,2.30
2019-03-17T13:01:30.736Z,1.77
2019-03-17T13:03:59.444Z,1.47
2019-03-17T13:06:28.323Z,1.50
2019-03-17T13:09:00.958Z,1.27
2019-03-17T13:11:30.063Z,1.33
2019-03-17T13:14:00.105Z,1.00
2019-03-17T13:16:28.754Z,1.03
2019-03-17T13:18:57.436Z,0.90
2019-03-17T13:21:29.661Z,1.30
2019-03-17T13:23:58.344Z,1.17
2019-03-17T13:26:32.853Z,1.17
2019-03-17T13:29:02.393Z,1.10
2019-03-17T13:31:32.595Z,1.10
2019-03-17T13:34:04.570Z,1.30
2019-03-17T13:36:34.848Z,1.23
2019-03-17T13:39:04.557Z,1.17
2019-03-17T13:41:35.243Z,1.10
2019-03-17T13:44:03.897Z,0.80
2019-03-17T13:46:35.706Z,1.07
2019-03-17T13:49:06.710Z,1.20
2019-03-17T13:51:39.951Z,1.10
2019-03-17T13:54:08.627Z,1.17
2019-03-17T13:56:39.923Z,1.30
2019-03-17T13:59:11.359Z,1.23
2019-03-17T14:01:40.263Z,1.30
2019-03-17T14:04:10.425Z,1.53
2019-03-17T14:06:48.454Z,1.40
2019-03-17T14:09:21.596Z,1.27
2019-03-17T14:11:51.788Z,1.50
2019-03-17T14:14:22.325Z,1.43
2019-03-17T14:17:01.387Z,2.00
2019-03-17T14:19:29.898Z,2.17
2019-03-17T14:21:58.614Z,1.77
2019-03-17T14:24:31.886Z,2.13
2019-03-17T14:27:00.812Z,1.70
2019-03-17T14:29:32.918Z,1.23
2019-03-17T14:32:00.376Z,1.37
2019-03-17T14:34:28.999Z,1.40
2019-03-17T14:36:57.643Z,1.40
2019-03-17T14:39:26.311Z,1.40
2019-03-17T14:41:55.125Z,1.57
2019-03-17T14:44:23.724Z,1.37
2019-03-17T14:46:52.459Z,1.40
2019-03-17T14:49:25.672Z,2.00
2019-03-17T14:51:57.241Z,1.00
2019-03-17T14:54:49.840Z,1.10
2019-03-17T14:57:18.577Z,1.00
2019-03-17T14:59:51.137Z,0.80
2019-03-17T15:02:25.534Z,0.80
2019-03-17T15:05:07.953Z,0.90
2019-03-17T15:07:40.827Z,1.10
2019-03-17T15:10:25.882Z,1.20
2019-03-17T15:13:00.719Z,1.20
2019-03-17T15:15:31.782Z,1.17
2019-03-17T15:18:00.490Z,1.50
2019-03-17T15:20:32.142Z,1.13
2019-03-17T15:23:06.767Z,1.30
2019-03-17T15:25:38.272Z,1.20
2019-03-17T15:28:09.972Z,1.40
2019-03-17T15:30:40.668Z,1.23
2019-03-17T15:33:09.290Z,1.20
2019-03-17T15:35:39.603Z,1.20
2019-03-17T15:38:08.696Z,1.33
2019-03-17T15:40:39.396Z,1.30
2019-03-17T15:43:08.123Z,1.40
2019-03-17T15:45:38.816Z,1.30
2019-03-17T15:48:11.438Z,1.20
2019-03-17T15:50:40.123Z,0.80
2019-03-17T15:53:13.181Z,0.80
2019-03-17T15:55:42.141Z,0.70
2019-03-17T15:58:11.492Z,0.60
2019-03-17T16:00:40.625Z,0.40
2019-03-17T16:03:13.764Z,0.37
2019-03-17T16:05:48.202Z,0.40
2019-03-17T16:08:18.663Z,0.33
2019-03-17T16:10:49.687Z,0.87
2019-03-17T16:13:18.335Z,0.40
2019-03-17T16:15:47.259Z,0.47
2019-03-17T16:18:17.848Z,0.80
2019-03-17T16:20:46.582Z,0.50
2019-03-17T16:23:15.362Z,0.33
2019-03-17T16:25:44.306Z,0.70
2019-03-17T16:28:14.897Z,0.50
2019-03-17T16:30:45.747Z,0.50
2019-03-17T16:33:14.837Z,0.47
2019-03-17T16:35:46.685Z,0.50
2019-03-17T16:38:15.514Z,0.67
2019-03-17T16:40:44.254Z,0.80
2019-03-17T16:43:17.286Z,0.60
2019-03-17T16:45:46.227Z,0.40
2019-03-17T16:48:24.738Z,0.50
2019-03-17T16:50:53.313Z,0.53
2019-03-17T16:53:23.616Z,0.50
2019-03-17T16:55:55.319Z,0.50
2019-03-17T16:58:29.528Z,0.40
2019-03-17T17:01:00.000Z,0.70
2019-03-17T17:03:32.241Z,0.50
2019-03-17T17:06:07.218Z,0.70
2019-03-17T17:08:35.862Z,0.63
2019-03-17T17:11:08.859Z,0.70
2019-03-17T17:13:39.222Z,0.70
2019-03-17T17:16:09.414Z,0.60
2019-03-17T17:18:38.163Z,0.73
2019-03-17T17:21:08.885Z,0.60
2019-03-17T17:23:39.543Z,0.60
2019-03-17T17:26:17.497Z,0.50
2019-03-17T17:28:46.117Z,0.63
2019-03-17T17:31:17.723Z,0.90
2019-03-17T17:33:49.669Z,0.80
2019-03-17T17:36:18.230Z,0.90
2019-03-17T17:38:48.085Z,0.50
2019-03-17T17:41:19.879Z,0.70
2019-03-17T17:43:48.801Z,0.60
2019-03-17T17:46:19.695Z,0.50
2019-03-17T17:48:48.440Z,0.60
2019-03-17T17:51:18.585Z,0.40
2019-03-17T17:53:50.446Z,0.40
2019-03-17T17:56:19.593Z,0.50
2019-03-17T17:58:48.410Z,0.30
2019-03-17T18:01:17.260Z,0.43
2019-03-17T18:03:51.606Z,0.40
2019-03-17T18:06:16.372Z,0.50
2019-03-17T18:08:45.390Z,0.77
2019-03-17T18:11:14.171Z,0.60
2019-03-17T18:13:47.216Z,1.43
2019-03-17T18:16:28.043Z,1.07
2019-03-17T18:18:58.530Z,1.53
2019-03-17T18:21:30.417Z,0.90
2019-03-17T18:24:04.524Z,0.90
2019-03-17T18:26:37.530Z,1.30
2019-03-17T18:29:08.768Z,0.93
2019-03-17T18:31:40.270Z,0.70
2019-03-17T18:34:08.985Z,0.87
2019-03-17T18:36:40.135Z,0.90
2019-03-17T18:39:09.167Z,0.67
2019-03-17T18:41:37.876Z,0.90
2019-03-17T18:44:06.588Z,0.97
2019-03-17T18:46:35.327Z,0.80
2019-03-17T18:49:05.522Z,0.80
2019-03-17T18:51:34.406Z,0.90
2019-03-17T18:54:05.668Z,0.90
2019-03-17T18:56:37.907Z,0.60
2019-03-17T18:59:09.655Z,0.90
2019-03-17T19:01:38.439Z,0.90
2019-03-17T19:04:07.261Z,0.80
2019-03-17T19:06:36.301Z,1.13
2019-03-17T19:09:06.698Z,0.77
2019-03-17T19:11:38.026Z,0.70
2019-03-17T19:14:25.899Z,0.83
2019-03-17T19:16:59.736Z,0.93
2019-03-17T19:19:34.400Z,0.70
2019-03-17T19:22:03.160Z,0.67
2019-03-17T19:24:32.719Z,0.90
2019-03-17T19:27:01.500Z,0.60
2019-03-17T19:29:30.228Z,0.70
2019-03-17T19:32:00.969Z,0.90
2019-03-17T19:34:29.402Z,0.93
2019-03-17T19:36:58.407Z,0.67
2019-03-17T19:39:27.297Z,0.80
2019-03-17T19:42:04.878Z,0.70
2019-03-17T19:44:34.752Z,0.80
2019-03-17T19:47:04.872Z,0.80
2019-03-17T19:49:35.955Z,0.80
2019-03-17T19:52:04.955Z,0.90
2019-03-17T19:54:38.155Z,0.70
2019-03-17T19:57:10.259Z,0.60
2019-03-17T19:59:38.966Z,0.60
2019-03-17T20:02:17.167Z,0.83
2019-03-17T20:04:48.904Z,0.60
2019-03-17T20:07:20.017Z,0.73
2019-03-17T20:09:51.009Z,0.90
2019-03-17T20:12:20.858Z,0.70
2019-03-17T20:15:07.003Z,0.70
2019-03-17T20:17:26.142Z,0.70
2019-03-17T20:19:58.114Z,0.70
2019-03-17T20:22:29.701Z,0.70
2019-03-17T20:25:01.282Z,0.90
2019-03-17T20:27:39.294Z,0.70
2019-03-17T20:30:16.248Z,0.70
2019-03-17T20:32:45.515Z,0.67
2019-03-17T20:35:17.852Z,0.60
2019-03-17T20:37:47.260Z,0.70
2019-03-17T20:40:18.086Z,0.60
2019-03-17T20:42:46.810Z,0.77
2019-03-17T20:45:26.982Z,0.50
2019-03-17T20:47:58.586Z,0.60
2019-03-17T20:50:27.260Z,0.77
2019-03-17T20:52:58.030Z,0.60
2019-03-17T20:55:26.328Z,0.60
2019-03-17T20:57:58.555Z,0.60
2019-03-17T21:00:27.450Z,0.90
2019-03-17T21:03:00.413Z,0.60
2019-03-17T21:05:32.238Z,0.90
2019-03-17T21:08:04.434Z,1.10
2019-03-17T21:10:33.393Z,0.97
2019-03-17T21:13:03.890Z,0.60
2019-03-17T21:15:34.903Z,0.70
2019-03-17T21:18:06.407Z,0.80
2019-03-17T21:20:42.513Z,0.80
2019-03-17T21:23:11.382Z,0.83
2019-03-17T21:25:40.096Z,1.17
2019-03-17T21:28:13.775Z,0.97
2019-03-17T21:30:42.788Z,1.27
2019-03-17T21:33:11.626Z,0.87
2019-03-17T21:35:42.107Z,1.10
2019-03-17T21:38:12.255Z,1.20
2019-03-17T21:41:01.396Z,1.53
2019-03-17T21:43:14.626Z,3.50
2019-03-17T21:45:45.034Z,1.27
2019-03-17T21:48:13.742Z,1.23
2019-03-17T21:51:12.448Z,1.30
2019-03-17T21:53:48.124Z,1.10
2019-03-17T21:56:17.444Z,1.00
2019-03-17T21:58:46.363Z,1.50
2019-03-17T22:01:23.963Z,1.70
2019-03-17T22:04:13.739Z,1.60
2019-03-17T22:06:47.434Z,1.47
2019-03-17T22:09:20.927Z,1.40
2019-03-17T22:11:50.884Z,1.80
2019-03-17T22:14:22.530Z,2.30
2019-03-17T22:16:57.752Z,2.47
2019-03-17T22:19:28.502Z,2.70
2019-03-17T22:22:00.180Z,2.30
2019-03-17T22:24:28.848Z,1.47
2019-03-17T22:27:00.811Z,2.00
2019-03-17T22:29:30.681Z,2.03
2019-03-17T22:31:59.260Z,2.83
2019-03-17T22:34:28.078Z,1.67
2019-03-17T22:36:59.572Z,2.17
2019-03-17T22:39:33.184Z,1.33
2019-03-17T22:42:01.824Z,1.97
2019-03-17T22:44:30.398Z,2.53
2019-03-17T22:46:58.970Z,3.33
2019-03-17T22:49:29.650Z,1.53
2019-03-17T22:51:58.478Z,4.90
2019-03-17T22:54:29.883Z,3.00
2019-03-17T22:56:58.578Z,1.97
2019-03-17T22:59:27.294Z,2.47
2019-03-17T23:02:00.240Z,1.30
2019-03-17T23:04:30.568Z,2.30
2019-03-17T23:07:01.912Z,1.20
2019-03-17T23:09:37.433Z,1.50
2019-03-17T23:12:06.312Z,1.97
2019-03-17T23:14:36.985Z,2.20
2019-03-17T23:17:05.446Z,1.80
2019-03-17T23:19:34.242Z,1.33
2019-03-17T23:22:02.984Z,1.10
2019-03-17T23:24:31.615Z,0.87
2019-03-17T23:27:00.408Z,1.20
2019-03-17T23:29:29.220Z,0.70
2019-03-17T23:31:57.850Z,0.70
2019-03-17T23:34:26.526Z,0.80
2019-03-17T23:36:55.266Z,0.97
2019-03-17T23:39:23.985Z,0.80
2019-03-17T23:41:52.655Z,0.90
2019-03-17T23:44:27.491Z,0.90
2019-03-17T23:46:58.549Z,0.83
2019-03-17T23:49:27.410Z,0.90
2019-03-17T23:51:56.131Z,0.90
2019-03-17T23:54:24.757Z,0.73
2019-03-17T23:57:12.784Z,1.23
2019-03-17T23:59:41.427Z,1.43
